CheckWX is a tool to help pilots better visualize weather data.  It is not intended as a substitute for an official pre-flight weather briefing.

21:57:19 UTC

VAAH METAR
Sardar Vallabhbhai Patel International Airport
Ahmedabad, India
Current

27 mins ago

VAAH 212130Z 00000KT 4000 HZ NSC 21/15 Q1013 NOSIG
Observed
Nov-21 @ 21:30 UTC
Visibility
4,000 meters
Flight Rules
IFR
Conditions
Haze
Cloud Levels
  • Clear skies
Temperature
21°C / 70°F
Dewpoint
15°C / 59°F
Humidity
69%
Altimeter
29.91" Hg
Pressure
1012.92 hPa
Previous

57 mins ago

VAAH 212100Z 00000KT 4000 HZ NSC 21/15 Q1013 NOSIG
Observed
Nov-21 @ 21:00 UTC
Visibility
4,000 meters
Flight Rules
IFR
Conditions
Haze
Cloud Levels
  • Clear skies
Temperature
21°C / 70°F
Dewpoint
15°C / 59°F
Humidity
69%
Altimeter
29.91" Hg
Pressure
1012.92 hPa
Previous

1 hour ago

VAAH 212030Z 00000KT 4000 HZ NSC 20/17 Q1013 NOSIG
Observed
Nov-21 @ 20:30 UTC
Visibility
4,000 meters
Flight Rules
IFR
Conditions
Haze
Cloud Levels
  • Clear skies
Temperature
20°C / 68°F
Dewpoint
17°C / 63°F
Humidity
83%
Altimeter
29.91" Hg
Pressure
1012.92 hPa